Time;durP1;ratioP1;P1;durP2;ratioP2;P2;SDS_P1;SDS_P2;PMS_P1;PMS_P2;Temp;Humidity;BMP_temperature;BMP_pressure;BME280_temperature;BME280_humidity;BME280_pressure;Samples;Min_cycle;Max_cycle;Signal;HPM_P1;HPM_P2
2021/08/18 00:01:22;;;;;;;7.15;3.75;;;15.50;99.90;;;;;;4972796;28;20073;-76
2021/08/18 00:03:48;;;;;;;8.48;3.90;;;15.50;99.90;;;;;;4972932;28;20027;-74
2021/08/18 00:06:14;;;;;;;10.70;4.40;;;15.50;99.90;;;;;;4973600;28;20093;-76
2021/08/18 00:08:44;;;;;;;5.60;4.60;;;15.50;99.90;;;;;;4972317;28;20030;-76
2021/08/18 00:11:10;;;;;;;7.55;4.43;;;15.50;99.90;;;;;;4973202;28;20054;-77
2021/08/18 00:13:36;;;;;;;8.05;4.40;;;15.50;99.90;;;;;;4972582;28;20070;-76
2021/08/18 00:16:01;;;;;;;8.07;4.90;;;15.50;99.90;;;;;;4973305;28;20022;-76
2021/08/18 00:18:27;;;;;;;7.18;4.22;;;15.50;99.90;;;;;;4973052;28;20031;-74
2021/08/18 00:20:53;;;;;;;9.35;4.35;;;15.50;99.90;;;;;;4972279;28;20392;-77
2021/08/18 00:23:19;;;;;;;9.13;4.65;;;15.60;99.90;;;;;;4973208;28;20023;-77
2021/08/18 00:25:45;;;;;;;4.93;4.35;;;15.50;99.90;;;;;;4973395;28;20030;-76
2021/08/18 00:28:10;;;;;;;6.47;5.10;;;15.60;99.90;;;;;;4972058;28;20510;-76
2021/08/18 00:30:36;;;;;;;6.60;4.28;;;15.60;99.90;;;;;;4973148;28;20023;-77
2021/08/18 00:33:01;;;;;;;4.80;4.28;;;15.60;99.90;;;;;;4972949;28;20015;-76
2021/08/18 00:35:27;;;;;;;10.32;4.57;;;15.60;99.90;;;;;;4972216;28;20034;-75
2021/08/18 00:37:53;;;;;;;10.00;4.40;;;15.50;99.90;;;;;;4973094;28;20058;-76
2021/08/18 00:40:19;;;;;;;6.90;4.53;;;15.60;99.90;;;;;;4972753;28;20043;-77
2021/08/18 00:42:46;;;;;;;9.38;4.43;;;15.50;99.90;;;;;;4972171;28;20114;-74
2021/08/18 00:45:14;;;;;;;5.05;4.55;;;15.60;99.90;;;;;;4973188;28;20034;-76
2021/08/18 00:47:41;;;;;;;4.80;4.15;;;15.60;99.90;;;;;;4972886;28;20051;-76
2021/08/18 00:50:08;;;;;;;4.50;4.03;;;15.60;99.90;;;;;;4973972;28;20513;-77
2021/08/18 00:52:34;;;;;;;8.88;4.43;;;15.50;99.90;;;;;;4976366;28;20468;-78
2021/08/18 00:54:59;;;;;;;5.03;4.53;;;15.50;99.90;;;;;;4976333;28;20034;-76
2021/08/18 00:57:25;;;;;;;7.05;4.68;;;15.60;99.90;;;;;;4975935;28;20015;-76
2021/08/18 00:59:50;;;;;;;6.63;4.40;;;15.60;99.90;;;;;;4976242;28;20023;-76
2021/08/18 01:02:17;;;;;;;10.95;6.10;;;15.60;99.90;;;;;;4976608;28;20018;-76
2021/08/18 01:04:42;;;;;;;7.63;4.68;;;15.60;99.90;;;;;;4975614;28;20031;-76
2021/08/18 01:07:08;;;;;;;10.07;4.90;;;15.60;99.90;;;;;;4976524;28;20034;-77
2021/08/18 01:09:35;;;;;;;6.07;4.05;;;15.60;99.90;;;;;;4976591;28;20049;-76
2021/08/18 01:12:00;;;;;;;6.57;4.63;;;15.60;99.90;;;;;;4975683;28;20104;-76
2021/08/18 01:14:27;;;;;;;6.50;4.70;;;15.60;99.90;;;;;;4976540;28;20106;-77
2021/08/18 01:16:53;;;;;;;8.10;4.47;;;15.60;99.90;;;;;;4975887;28;20481;-76
2021/08/18 01:19:19;;;;;;;4.97;4.57;;;15.60;99.90;;;;;;4976082;28;20061;-78
2021/08/18 01:21:47;;;;;;;4.80;3.92;;;15.60;99.90;;;;;;4970333;28;20107;-76
2021/08/18 01:24:18;;;;;;;8.18;4.07;;;15.60;99.90;;;;;;4975134;28;20035;-76
2021/08/18 01:26:44;;;;;;;7.03;4.05;;;15.60;99.90;;;;;;4976119;28;20048;-77
2021/08/18 01:29:10;;;;;;;8.95;4.25;;;15.60;99.90;;;;;;4976037;28;20186;-76
2021/08/18 01:31:36;;;;;;;5.32;3.63;;;15.60;99.90;;;;;;4975166;28;20023;-76
2021/08/18 01:34:04;;;;;;;5.45;3.45;;;15.60;99.90;;;;;;4976129;28;20025;-77
2021/08/18 01:36:31;;;;;;;7.15;3.65;;;15.60;99.90;;;;;;4975564;28;20027;-76
2021/08/18 01:39:07;;;;;;;7.55;3.30;;;15.60;99.90;;;;;;4974920;28;20059;-77
2021/08/18 01:41:33;;;;;;;6.13;3.50;;;15.60;99.90;;;;;;4975888;28;20090;-76
2021/08/18 01:43:58;;;;;;;7.57;4.13;;;15.50;99.90;;;;;;4976036;28;20415;-78
2021/08/18 01:46:25;;;;;;;4.28;3.88;;;15.50;99.90;;;;;;4975528;28;20054;-77
2021/08/18 01:48:51;;;;;;;5.75;3.95;;;15.60;99.90;;;;;;4975741;28;20037;-77
2021/08/18 01:51:17;;;;;;;8.48;4.20;;;15.60;99.90;;;;;;4975774;28;20077;-75
2021/08/18 01:53:45;;;;;;;5.20;3.85;;;15.50;99.90;;;;;;4975149;28;20027;-78
2021/08/18 01:56:12;;;;;;;6.63;4.13;;;15.50;99.90;;;;;;4975797;28;20038;-76
2021/08/18 01:58:39;;;;;;;5.40;4.30;;;15.50;99.90;;;;;;4975879;28;20038;-77
2021/08/18 02:01:11;;;;;;;6.30;4.13;;;15.50;99.90;;;;;;4973597;28;20049;-77
2021/08/18 02:03:37;;;;;;;6.55;4.07;;;15.50;99.90;;;;;;4975439;28;20097;-77
2021/08/18 02:06:02;;;;;;;8.38;4.47;;;15.50;99.90;;;;;;4974647;28;20531;-77
2021/08/18 02:08:28;;;;;;;5.00;3.90;;;15.50;99.90;;;;;;4975532;28;20390;-74
2021/08/18 02:10:54;;;;;;;5.57;3.92;;;15.50;99.90;;;;;;4975717;28;20027;-78
2021/08/18 02:13:20;;;;;;;6.90;3.78;;;15.50;99.90;;;;;;4974703;28;20200;-76
2021/08/18 02:15:45;;;;;;;7.85;4.10;;;15.50;99.90;;;;;;4975110;28;20065;-76
2021/08/18 02:18:14;;;;;;;4.10;3.55;;;15.50;99.90;;;;;;4975232;28;20045;-76
2021/08/18 02:20:42;;;;;;;9.52;3.88;;;15.50;99.90;;;;;;4974025;28;20582;-77
2021/08/18 02:23:07;;;;;;;4.80;4.30;;;15.50;99.90;;;;;;4975215;28;20050;-76
2021/08/18 02:25:35;;;;;;;6.88;3.42;;;15.50;99.90;;;;;;4975099;28;20391;-76
2021/08/18 02:28:01;;;;;;;5.15;4.38;;;15.50;99.90;;;;;;4974177;28;20053;-78
2021/08/18 02:30:28;;;;;;;5.93;4.07;;;15.50;99.90;;;;;;4974697;28;20107;-75
2021/08/18 02:32:54;;;;;;;6.20;3.85;;;15.50;99.90;;;;;;4974887;28;20550;-78
2021/08/18 02:35:20;;;;;;;8.02;4.55;;;15.50;99.90;;;;;;4974145;28;20035;-75
2021/08/18 02:37:48;;;;;;;7.05;3.97;;;15.50;99.90;;;;;;4974886;28;20107;-75
2021/08/18 02:40:21;;;;;;;5.43;3.72;;;15.50;99.90;;;;;;4974783;28;20042;-75
2021/08/18 02:42:49;;;;;;;6.93;3.80;;;15.50;99.90;;;;;;4974164;28;20062;-77
2021/08/18 02:45:15;;;;;;;7.13;3.63;;;15.40;99.90;;;;;;4974894;28;20089;-75
2021/08/18 02:47:40;;;;;;;4.90;3.90;;;15.40;99.90;;;;;;4974508;28;20026;-74
2021/08/18 02:50:09;;;;;;;4.72;3.97;;;15.40;99.90;;;;;;4974199;28;20339;-78
2021/08/18 02:52:34;;;;;;;4.97;3.88;;;15.40;99.90;;;;;;4974168;28;20483;-77
2021/08/18 02:55:00;;;;;;;8.55;4.28;;;15.40;99.90;;;;;;4975143;28;20050;-78
2021/08/18 02:57:26;;;;;;;9.27;4.18;;;15.40;99.90;;;;;;4974346;28;20471;-75
2021/08/18 02:59:52;;;;;;;4.97;4.47;;;15.40;99.90;;;;;;4974421;28;20074;-75
2021/08/18 03:02:19;;;;;;;5.63;3.95;;;15.40;99.90;;;;;;4973498;28;20023;-76
2021/08/18 03:04:44;;;;;;;6.10;3.90;;;15.30;99.90;;;;;;4974377;28;20022;-76
2021/08/18 03:07:10;;;;;;;5.50;4.10;;;15.40;99.90;;;;;;4974131;28;20030;-77
2021/08/18 03:09:35;;;;;;;6.65;4.35;;;15.40;99.90;;;;;;4972928;28;20035;-76
2021/08/18 03:12:01;;;;;;;6.53;3.97;;;15.30;99.90;;;;;;4974078;28;20034;-77
2021/08/18 03:14:27;;;;;;;3.95;3.55;;;15.30;99.90;;;;;;4973885;28;20023;-76
2021/08/18 03:16:52;;;;;;;4.00;3.70;;;15.30;99.90;;;;;;4973475;28;20027;-76
2021/08/18 03:19:18;;;;;;;13.30;3.75;;;15.30;99.90;;;;;;4973995;28;20042;-77
2021/08/18 03:21:43;;;;;;;5.38;3.58;;;15.30;99.90;;;;;;4974133;28;20031;-76
2021/08/18 03:24:11;;;;;;;5.90;3.70;;;15.30;99.90;;;;;;4973525;28;20038;-76
2021/08/18 03:26:38;;;;;;;5.30;3.20;;;15.30;99.90;;;;;;4974071;28;20078;-77
2021/08/18 03:29:03;;;;;;;3.50;3.20;;;15.30;99.90;;;;;;4973953;28;20039;-76
2021/08/18 03:31:29;;;;;;;9.38;3.65;;;15.30;99.90;;;;;;4973046;28;20438;-76
2021/08/18 03:33:55;;;;;;;6.78;3.33;;;15.30;99.90;;;;;;4974029;28;20050;-76
2021/08/18 03:36:20;;;;;;;3.80;3.25;;;15.30;99.90;;;;;;4974063;28;20474;-77
2021/08/18 03:38:46;;;;;;;4.22;3.53;;;15.30;99.90;;;;;;4973214;28;20549;-76
2021/08/18 03:41:11;;;;;;;6.75;3.80;;;15.30;99.90;;;;;;4975039;28;20038;-75
2021/08/18 03:43:37;;;;;;;7.07;3.60;;;15.30;99.90;;;;;;4974427;28;20023;-77
2021/08/18 03:46:02;;;;;;;5.18;3.72;;;15.20;99.90;;;;;;4973441;28;20069;-77
2021/08/18 03:48:28;;;;;;;4.88;3.33;;;15.30;99.90;;;;;;4973677;28;20402;-77
2021/08/18 03:50:54;;;;;;;8.32;3.88;;;15.30;99.90;;;;;;4973642;28;20114;-77
2021/08/18 03:53:19;;;;;;;4.28;2.78;;;15.20;99.90;;;;;;4973587;28;20023;-75
2021/08/18 03:55:45;;;;;;;4.18;3.10;;;15.30;99.90;;;;;;4973155;28;20030;-76
2021/08/18 03:58:10;;;;;;;5.13;3.08;;;15.30;99.90;;;;;;4973750;28;20027;-78
2021/08/18 04:00:36;;;;;;;8.48;3.13;;;15.30;99.90;;;;;;4972422;28;20506;-78
2021/08/18 04:03:02;;;;;;;4.78;2.65;;;15.20;99.90;;;;;;4973625;28;20383;-77
2021/08/18 04:05:28;;;;;;;4.25;2.75;;;15.20;99.90;;;;;;4973271;28;20019;-76
2021/08/18 04:07:53;;;;;;;4.40;3.13;;;15.30;99.90;;;;;;4972690;28;20035;-75
2021/08/18 04:10:19;;;;;;;5.35;3.20;;;15.20;99.90;;;;;;4973504;28;20026;-74
2021/08/18 04:12:48;;;;;;;4.43;3.72;;;15.30;99.90;;;;;;4972347;28;20102;-77
2021/08/18 04:15:14;;;;;;;4.45;3.55;;;15.30;99.90;;;;;;4973365;28;20027;-76
2021/08/18 04:17:40;;;;;;;4.82;3.75;;;15.30;99.90;;;;;;4972909;28;20081;-77
2021/08/18 04:20:06;;;;;;;5.75;3.30;;;15.30;99.90;;;;;;4972372;28;20475;-77
2021/08/18 04:22:31;;;;;;;9.52;3.78;;;15.30;99.90;;;;;;4972989;28;20497;-77
2021/08/18 04:24:57;;;;;;;8.43;4.43;;;15.30;99.90;;;;;;4974944;28;20106;-77
2021/08/18 04:27:22;;;;;;;7.25;3.47;;;15.30;99.90;;;;;;4976508;28;20122;-77
2021/08/18 04:29:48;;;;;;;4.15;3.65;;;15.30;99.90;;;;;;4976585;28;20059;-76
2021/08/18 04:32:13;;;;;;;6.40;4.18;;;15.30;99.90;;;;;;4977689;28;20062;-75
2021/08/18 04:34:39;;;;;;;8.73;3.97;;;15.30;99.90;;;;;;4976420;28;20027;-77
2021/08/18 04:37:04;;;;;;;5.43;3.75;;;15.30;99.90;;;;;;4976908;28;20023;-76
2021/08/18 04:39:30;;;;;;;5.05;3.22;;;15.40;99.90;;;;;;4976600;28;20110;-76
2021/08/18 04:41:55;;;;;;;8.40;3.65;;;16.20;99.90;;;;;;4975881;28;20053;-77
2021/08/18 04:44:21;;;;;;;7.38;3.70;;;15.40;99.90;;;;;;4976656;28;20030;-76
2021/08/18 04:46:46;;;;;;;6.25;3.78;;;15.40;99.90;;;;;;4976673;28;20074;-76
2021/08/18 04:49:12;;;;;;;4.68;3.83;;;15.40;99.90;;;;;;4975587;28;20110;-77
2021/08/18 04:51:37;;;;;;;10.63;3.90;;;15.40;99.90;;;;;;4976594;28;20027;-76
2021/08/18 04:54:03;;;;;;;6.68;3.60;;;15.40;99.90;;;;;;4976525;28;20539;-77
2021/08/18 04:56:28;;;;;;;5.03;3.88;;;15.40;99.90;;;;;;4975679;28;20027;-76
2021/08/18 04:58:54;;;;;;;6.57;3.95;;;15.40;99.90;;;;;;4976460;28;20034;-76
2021/08/18 05:01:28;;;;;;;10.20;3.97;;;15.50;99.90;;;;;;4976587;28;20074;-78
2021/08/18 05:03:53;;;;;;;7.10;3.95;;;15.50;99.90;;;;;;4975851;28;20062;-74
2021/08/18 05:06:19;;;;;;;5.72;4.00;;;15.50;99.90;;;;;;4976581;28;20082;-75
2021/08/18 05:08:44;;;;;;;7.30;4.07;;;15.50;99.90;;;;;;4976325;28;20178;-75
2021/08/18 05:11:10;;;;;;;5.75;3.75;;;15.50;99.90;;;;;;4975696;28;20038;-75
2021/08/18 05:13:35;;;;;;;6.50;3.53;;;15.50;99.90;;;;;;4976233;28;20505;-75
2021/08/18 05:16:01;;;;;;;6.45;4.28;;;15.60;99.90;;;;;;4975965;28;20549;-76
2021/08/18 05:18:26;;;;;;;8.30;4.00;;;15.70;99.90;;;;;;4976358;28;20107;-75
2021/08/18 05:20:52;;;;;;;9.15;3.92;;;15.70;99.90;;;;;;4976250;28;20386;-77
2021/08/18 05:23:17;;;;;;;5.28;3.33;;;15.70;99.90;;;;;;4975648;28;20031;-78
2021/08/18 05:25:43;;;;;;;3.95;3.40;;;15.70;99.90;;;;;;4975794;28;20114;-76
2021/08/18 05:28:13;;;;;;;7.60;3.50;;;15.80;99.90;;;;;;4976132;28;20372;-77
2021/08/18 05:30:39;;;;;;;6.55;3.90;;;15.80;99.90;;;;;;4962319;28;20442;-76
2021/08/18 05:33:05;;;;;;;3.97;3.50;;;15.90;99.90;;;;;;4976151;28;20054;-77
2021/08/18 05:35:30;;;;;;;7.50;3.67;;;15.90;99.90;;;;;;4975489;28;20019;-76
2021/08/18 05:37:56;;;;;;;7.05;3.60;;;15.90;99.90;;;;;;4975243;28;20023;-76
2021/08/18 05:40:21;;;;;;;8.45;4.93;;;15.90;99.90;;;;;;4975678;28;20078;-76
2021/08/18 05:42:47;;;;;;;9.07;3.88;;;16.00;99.90;;;;;;4975544;28;20078;-75
2021/08/18 05:45:13;;;;;;;4.38;3.97;;;16.00;99.90;;;;;;4975104;28;20037;-75
2021/08/18 05:47:38;;;;;;;5.38;4.20;;;16.00;99.90;;;;;;4975597;28;20490;-75
2021/08/18 05:50:05;;;;;;;5.10;3.40;;;16.10;99.90;;;;;;4975716;28;20051;-75
2021/08/18 05:52:30;;;;;;;4.63;3.72;;;16.10;99.90;;;;;;4974609;28;20557;-77
2021/08/18 05:55:00;;;;;;;4.28;3.88;;;16.10;99.90;;;;;;4975652;28;20031;-77
2021/08/18 05:57:26;;;;;;;4.30;3.53;;;16.10;99.90;;;;;;4975456;28;20045;-76
2021/08/18 05:59:52;;;;;;;5.05;3.53;;;16.10;99.90;;;;;;4975057;28;20482;-76
2021/08/18 06:02:17;;;;;;;3.38;3.08;;;16.20;99.90;;;;;;4975639;28;20066;-76
2021/08/18 06:04:43;;;;;;;5.97;3.75;;;16.20;99.90;;;;;;4975464;28;20019;-76
2021/08/18 06:07:09;;;;;;;3.35;3.05;;;16.30;99.90;;;;;;4975048;28;20026;-76
2021/08/18 06:09:34;;;;;;;7.00;3.80;;;16.30;99.90;;;;;;4974889;28;20106;-76
2021/08/18 06:12:00;;;;;;;4.35;3.40;;;16.30;99.90;;;;;;4976096;28;20173;-76
2021/08/18 06:14:25;;;;;;;4.65;3.65;;;16.30;99.90;;;;;;4974816;28;20475;-77
2021/08/18 06:16:51;;;;;;;6.72;3.53;;;16.30;99.90;;;;;;4975377;28;20026;-76
2021/08/18 06:19:17;;;;;;;4.18;3.58;;;16.40;99.90;;;;;;4974621;28;20019;-75
2021/08/18 06:21:42;;;;;;;9.80;4.65;;;16.40;99.90;;;;;;4974900;28;20031;-76
2021/08/18 06:26:53;;;;;;;5.75;4.30;;;16.40;99.90;;;;;;4974289;28;20399;-76
2021/08/18 06:29:19;;;;;;;7.38;3.78;;;16.50;99.90;;;;;;4974606;28;20061;-75
2021/08/18 06:31:45;;;;;;;5.93;4.03;;;16.50;99.90;;;;;;4974824;28;20030;-75
2021/08/18 06:34:10;;;;;;;4.47;3.85;;;16.50;99.90;;;;;;4974408;28;20022;-77
2021/08/18 06:36:36;;;;;;;6.15;4.15;;;16.60;99.90;;;;;;4974580;28;20023;-75
2021/08/18 06:39:01;;;;;;;4.93;4.43;;;16.60;99.90;;;;;;4975002;28;20085;-77
2021/08/18 06:41:27;;;;;;;6.53;4.00;;;16.60;99.90;;;;;;4973995;28;20082;-76
2021/08/18 06:43:52;;;;;;;5.47;3.78;;;16.60;99.90;;;;;;4975122;28;20018;-77
2021/08/18 06:46:18;;;;;;;4.70;4.22;;;16.70;99.90;;;;;;4974675;28;20031;-75
2021/08/18 06:48:43;;;;;;;9.80;4.50;;;16.70;99.90;;;;;;4973050;28;20058;-78
2021/08/18 06:51:09;;;;;;;11.38;5.25;;;16.80;99.90;;;;;;4975279;28;20034;-76
2021/08/18 06:53:35;;;;;;;5.63;4.30;;;16.80;99.90;;;;;;4974753;28;20037;-75
2021/08/18 06:56:00;;;;;;;8.88;4.60;;;16.80;99.90;;;;;;4973833;28;20072;-76
2021/08/18 06:58:26;;;;;;;6.68;4.78;;;16.90;99.90;;;;;;4974646;28;20019;-74
2021/08/18 07:00:51;;;;;;;4.95;4.55;;;16.90;99.90;;;;;;4974437;28;20034;-75
2021/08/18 07:03:17;;;;;;;7.45;5.35;;;16.90;99.90;;;;;;4974115;28;20015;-75
2021/08/18 07:05:42;;;;;;;7.53;4.57;;;17.00;99.90;;;;;;4988782;28;20062;-76
2021/08/18 07:08:08;;;;;;;7.70;5.45;;;16.90;99.90;;;;;;4974575;28;20019;-75
2021/08/18 07:10:33;;;;;;;7.97;6.00;;;17.00;99.90;;;;;;4973364;28;20023;-77
2021/08/18 07:13:02;;;;;;;12.05;6.53;;;17.00;99.90;;;;;;4974200;28;20033;-77
2021/08/18 07:15:27;;;;;;;12.45;6.40;;;17.10;99.90;;;;;;4973495;28;20166;-76
2021/08/18 07:17:53;;;;;;;7.75;6.72;;;17.10;99.90;;;;;;4974363;28;20522;-77
2021/08/18 07:20:18;;;;;;;7.70;6.82;;;17.20;99.90;;;;;;4974105;28;20130;-76
2021/08/18 07:22:44;;;;;;;7.97;6.07;;;17.20;99.90;;;;;;4973244;28;20027;-78
2021/08/18 07:25:10;;;;;;;7.22;6.35;;;17.30;99.90;;;;;;4974829;28;20027;-77
2021/08/18 07:27:36;;;;;;;8.50;5.70;;;17.30;99.90;;;;;;4973649;28;20038;-76
2021/08/18 07:30:02;;;;;;;13.60;6.85;;;17.40;99.90;;;;;;4973180;28;20038;-76
2021/08/18 07:32:27;;;;;;;6.50;6.00;;;17.40;99.90;;;;;;4973563;28;20027;-76
2021/08/18 07:34:53;;;;;;;7.10;6.38;;;17.50;99.90;;;;;;4973938;28;20368;-78
2021/08/18 07:37:19;;;;;;;7.80;6.28;;;17.50;99.90;;;;;;4972968;28;20554;-77
2021/08/18 07:39:44;;;;;;;7.63;6.93;;;17.50;99.90;;;;;;4973546;28;20497;-77
2021/08/18 07:42:11;;;;;;;13.20;6.63;;;17.60;99.90;;;;;;4973796;28;20101;-76
2021/08/18 07:44:37;;;;;;;6.88;6.28;;;17.60;99.90;;;;;;4972859;28;20141;-76
2021/08/18 07:47:03;;;;;;;8.90;7.90;;;17.70;99.90;;;;;;4973735;28;20033;-76
2021/08/18 07:49:29;;;;;;;11.73;6.28;;;17.70;99.90;;;;;;4973560;28;20019;-75
2021/08/18 07:51:54;;;;;;;7.13;6.25;;;17.70;99.90;;;;;;4972795;28;20031;-77
2021/08/18 07:54:20;;;;;;;7.32;6.07;;;17.80;99.90;;;;;;4973575;28;20117;-77
2021/08/18 07:56:45;;;;;;;7.65;6.95;;;17.90;99.90;;;;;;4973681;28;20023;-77
2021/08/18 07:59:11;;;;;;;6.55;5.95;;;17.90;99.90;;;;;;4971815;28;20114;-76
2021/08/18 08:01:36;;;;;;;18.00;6.43;;;18.00;99.90;;;;;;4973254;28;20046;-76
2021/08/18 08:04:02;;;;;;;6.10;5.60;;;18.10;99.90;;;;;;4973288;28;20037;-76
2021/08/18 08:06:28;;;;;;;8.48;6.38;;;18.10;99.90;;;;;;4972225;28;20058;-77
2021/08/18 08:08:53;;;;;;;8.57;6.53;;;18.20;99.90;;;;;;4972128;28;20019;-76
2021/08/18 08:11:19;;;;;;;7.18;6.28;;;18.20;99.90;;;;;;4973225;28;20376;-75
2021/08/18 08:13:44;;;;;;;10.57;6.97;;;18.20;99.90;;;;;;4972462;28;20490;-76
2021/08/18 08:16:10;;;;;;;8.45;7.28;;;18.20;99.90;;;;;;4973499;28;20031;-75
2021/08/18 08:18:35;;;;;;;7.97;6.32;;;18.30;99.90;;;;;;4973152;28;20501;-75
2021/08/18 08:21:01;;;;;;;7.57;6.97;;;18.30;99.90;;;;;;4972888;28;20035;-76
2021/08/18 08:23:27;;;;;;;8.70;7.57;;;18.50;99.90;;;;;;4973186;28;20426;-77
2021/08/18 08:25:52;;;;;;;7.95;7.25;;;18.60;99.90;;;;;;4972818;28;20122;-76
2021/08/18 08:28:18;;;;;;;8.35;6.70;;;18.70;99.90;;;;;;4972956;28;20051;-76
2021/08/18 08:30:43;;;;;;;7.82;6.72;;;18.70;99.90;;;;;;4972935;28;20018;-76
2021/08/18 08:33:09;;;;;;;15.20;7.55;;;18.80;99.90;;;;;;4972560;28;20026;-76
2021/08/18 08:35:34;;;;;;;8.68;7.82;;;18.90;99.90;;;;;;4973077;28;20027;-77
2021/08/18 08:38:00;;;;;;;11.40;7.20;;;18.90;99.90;;;;;;4974197;28;20015;-77
2021/08/18 08:40:26;;;;;;;7.70;7.00;;;18.90;99.90;;;;;;4973274;28;20383;-78
2021/08/18 08:42:52;;;;;;;8.18;6.95;;;18.90;99.90;;;;;;4973342;28;20030;-77
2021/08/18 08:45:17;;;;;;;9.88;7.80;;;18.90;99.90;;;;;;4973034;28;20034;-76
2021/08/18 08:47:43;;;;;;;8.52;7.55;;;18.80;99.90;;;;;;4972128;28;20023;-77
2021/08/18 08:50:11;;;;;;;9.27;6.97;;;18.70;99.90;;;;;;4972860;28;20023;-77
2021/08/18 08:52:37;;;;;;;8.32;6.65;;;18.60;99.90;;;;;;4972451;28;20039;-77
2021/08/18 08:55:04;;;;;;;8.70;7.80;;;18.50;99.90;;;;;;4972268;28;20030;-77
2021/08/18 08:57:30;;;;;;;8.85;7.43;;;18.40;99.90;;;;;;4972460;28;20501;-77
2021/08/18 08:59:55;;;;;;;9.93;7.20;;;18.30;99.90;;;;;;4973145;28;20027;-76
2021/08/18 09:02:21;;;;;;;10.05;7.88;;;18.20;99.90;;;;;;4972168;28;20034;-77
2021/08/18 09:04:48;;;;;;;7.10;6.22;;;18.10;99.90;;;;;;4972525;28;20062;-76
2021/08/18 09:07:17;;;;;;;11.65;7.13;;;17.90;99.90;;;;;;4973195;28;20073;-76
2021/08/18 09:09:54;;;;;;;5.15;4.70;;;17.90;99.90;;;;;;4958841;28;20019;-75
2021/08/18 09:12:27;;;;;;;5.88;4.93;;;17.80;99.90;;;;;;4976625;28;20467;-76
2021/08/18 09:14:52;;;;;;;6.63;5.20;;;17.80;99.90;;;;;;4976696;28;20115;-76
2021/08/18 09:17:31;;;;;;;5.22;4.72;;;17.80;99.90;;;;;;4975666;28;20117;-75
2021/08/18 09:20:07;;;;;;;6.68;5.15;;;17.70;99.90;;;;;;4963327;28;20038;-75
2021/08/18 09:22:37;;;;;;;6.85;6.15;;;17.80;99.90;;;;;;4975929;28;20030;-75
2021/08/18 09:25:20;;;;;;;7.05;6.40;;;17.90;99.90;;;;;;4963119;28;20023;-75
2021/08/18 09:27:49;;;;;;;8.15;7.38;;;17.90;99.90;;;;;;4975941;28;20209;-76
2021/08/18 09:30:23;;;;;;;8.10;7.20;;;17.90;99.90;;;;;;4975655;28;20031;-76
2021/08/18 09:32:49;;;;;;;9.18;8.25;;;17.90;99.90;;;;;;4976095;28;20034;-75
2021/08/18 09:35:17;;;;;;;10.10;9.20;;;17.90;99.90;;;;;;4975849;28;20027;-76
2021/08/18 09:37:51;;;;;;;13.57;10.63;;;17.90;99.90;;;;;;4975253;28;20046;-76
2021/08/18 09:40:24;;;;;;;12.15;10.57;;;17.90;99.90;;;;;;4976144;28;20030;-75
2021/08/18 09:42:52;;;;;;;17.85;10.55;;;18.00;99.90;;;;;;4975937;28;20026;-77
2021/08/18 09:45:26;;;;;;;11.63;10.43;;;18.00;99.90;;;;;;4975399;28;20027;-77
2021/08/18 09:48:04;;;;;;;13.27;10.80;;;18.10;99.90;;;;;;4975922;28;20023;-74
2021/08/18 09:50:44;;;;;;;12.13;10.85;;;18.10;99.90;;;;;;4974666;28;20034;-77
2021/08/18 09:53:15;;;;;;;12.00;10.88;;;18.20;99.90;;;;;;4976188;28;20053;-76
2021/08/18 09:55:50;;;;;;;12.55;10.63;;;18.30;99.90;;;;;;4975510;28;20034;-76
2021/08/18 09:58:30;;;;;;;17.38;11.90;;;18.30;99.90;;;;;;4975390;28;20026;-76
2021/08/18 10:00:58;;;;;;;13.40;10.93;;;18.40;99.90;;;;;;4975306;28;20031;-76
2021/08/18 10:03:25;;;;;;;15.93;10.82;;;18.60;99.90;;;;;;4975728;28;20070;-76
2021/08/18 10:05:51;;;;;;;12.77;10.48;;;18.80;99.90;;;;;;4974277;28;20537;-76
2021/08/18 10:08:20;;;;;;;11.50;10.40;;;18.90;99.90;;;;;;4975548;28;20058;-77
2021/08/18 10:10:46;;;;;;;13.98;11.15;;;19.10;99.90;;;;;;4974888;28;20375;-75
2021/08/18 10:13:12;;;;;;;12.18;10.93;;;19.20;99.90;;;;;;4974737;28;20027;-77
2021/08/18 10:15:39;;;;;;;12.55;11.45;;;19.20;99.90;;;;;;4974803;28;20027;-75
2021/08/18 10:18:06;;;;;;;15.77;10.32;;;19.40;99.90;;;;;;4975062;28;20467;-76
2021/08/18 10:20:33;;;;;;;11.45;9.23;;;19.50;99.90;;;;;;4974908;28;20035;-77
2021/08/18 10:23:10;;;;;;;15.30;9.23;;;19.60;99.90;;;;;;4960758;28;20030;-75
2021/08/18 10:25:48;;;;;;;10.98;9.25;;;19.70;99.90;;;;;;4974575;28;20113;-76
2021/08/18 10:28:16;;;;;;;9.82;8.93;;;19.70;99.90;;;;;;4974999;28;20046;-75
2021/08/18 10:30:47;;;;;;;12.07;8.82;;;19.80;99.90;;;;;;4975106;28;20022;-76
2021/08/18 10:33:50;;;;;;;11.23;8.38;;;19.90;99.90;;;;;;4974639;28;20035;-76
2021/08/18 10:36:44;;;;;;;10.85;8.00;;;19.90;99.90;;;;;;4974802;28;20435;-75
2021/08/18 10:39:19;;;;;;;13.38;8.15;;;19.90;99.90;;;;;;4962450;28;20057;-76
2021/08/18 10:42:01;;;;;;;9.38;7.72;;;20.10;99.90;;;;;;4974153;28;20038;-77
2021/08/18 10:44:43;;;;;;;9.38;7.82;;;20.20;99.90;;;;;;4963234;28;20027;-77
2021/08/18 10:47:19;;;;;;;11.05;7.30;;;20.30;99.90;;;;;;4974172;28;20109;-76
2021/08/18 10:49:46;;;;;;;7.60;6.90;;;20.30;99.90;;;;;;4974497;28;20084;-75
2021/08/18 10:52:32;;;;;;;8.23;7.28;;;20.20;99.90;;;;;;4974721;28;20035;-77
2021/08/18 10:55:05;;;;;;;12.75;7.80;;;20.10;99.90;;;;;;4973729;28;20027;-76
2021/08/18 10:57:50;;;;;;;13.10;7.38;;;19.90;99.90;;;;;;4974275;28;20023;-77
2021/08/18 11:00:19;;;;;;;9.40;7.25;;;19.90;99.90;;;;;;4974449;28;20038;-76
2021/08/18 11:02:55;;;;;;;8.15;7.47;;;19.90;99.90;;;;;;4973304;28;20093;-76
2021/08/18 11:05:24;;;;;;;10.18;7.03;;;19.90;99.90;;;;;;4974470;28;20094;-75
2021/08/18 11:08:38;;;;;;;14.32;7.07;;;20.10;99.90;;;;;;4973484;28;20030;-76
2021/08/18 11:11:07;;;;;;;10.38;6.38;;;20.10;99.90;;;;;;4981848;28;20123;-78
2021/08/18 11:13:46;;;;;;;10.23;8.20;;;20.20;99.90;;;;;;4973852;28;20019;-77
2021/08/18 11:16:16;;;;;;;9.73;6.95;;;20.20;99.90;;;;;;4973662;28;20093;-78
2021/08/18 11:18:50;;;;;;;9.13;7.88;;;20.40;99.90;;;;;;4973849;28;20054;-77
2021/08/18 11:21:21;;;;;;;10.48;6.10;;;20.50;99.90;;;;;;4974025;28;20031;-78
2021/08/18 11:23:54;;;;;;;8.32;5.78;;;20.70;99.90;;;;;;4973305;28;20027;-78
2021/08/18 11:26:24;;;;;;;10.95;7.05;;;20.90;99.90;;;;;;4972558;28;20026;-77
2021/08/18 11:28:58;;;;;;;6.18;5.57;;;21.10;99.90;;;;;;4972851;28;20074;-78
2021/08/18 11:31:33;;;;;;;7.25;5.97;;;21.20;99.90;;;;;;4974247;28;20047;-77
2021/08/18 11:33:59;;;;;;;6.13;5.53;;;21.10;99.90;;;;;;4973802;28;20089;-77
2021/08/18 11:36:25;;;;;;;7.70;5.63;;;21.00;99.90;;;;;;4973313;28;20093;-77
2021/08/18 11:39:02;;;;;;;7.68;5.25;;;21.00;99.90;;;;;;4973386;28;20468;-76
2021/08/18 11:41:36;;;;;;;5.57;5.07;;;20.90;99.90;;;;;;4973348;28;20049;-77
2021/08/18 11:44:02;;;;;;;6.13;3.38;;;21.00;99.90;;;;;;4971917;28;20026;-77
2021/08/18 11:46:29;;;;;;;7.43;3.55;;;20.90;99.90;;;;;;4973746;28;20038;-76
2021/08/18 11:49:11;;;;;;;5.38;4.03;;;20.90;99.90;;;;;;4973683;28;20138;-79
2021/08/18 11:51:37;;;;;;;7.65;3.72;;;21.00;99.90;;;;;;4973125;28;20019;-79
2021/08/18 11:54:05;;;;;;;3.53;3.22;;;21.00;99.90;;;;;;4973802;28;20068;-78
2021/08/18 11:56:31;;;;;;;4.55;3.42;;;21.20;99.90;;;;;;4972054;28;20079;-77
2021/08/18 11:58:59;;;;;;;5.15;3.90;;;21.30;99.90;;;;;;4971478;28;20054;-77
2021/08/18 12:01:25;;;;;;;8.30;4.15;;;21.30;99.90;;;;;;4973508;28;20535;-78
2021/08/18 12:03:53;;;;;;;3.30;3.03;;;21.30;99.90;;;;;;4972418;28;20463;-78
2021/08/18 12:06:30;;;;;;;3.50;3.20;;;21.40;99.90;;;;;;4973450;28;20435;-80
2021/08/18 12:08:56;;;;;;;3.70;3.40;;;21.60;99.90;;;;;;4973621;28;20029;-78
2021/08/18 12:11:32;;;;;;;3.70;2.65;;;21.60;99.90;;;;;;4972467;28;20023;-79
2021/08/18 12:14:08;;;;;;;7.00;2.92;;;21.60;99.90;;;;;;4973249;28;20027;-78
2021/08/18 12:16:33;;;;;;;3.08;2.88;;;21.60;99.90;;;;;;4973047;28;20052;-78
2021/08/18 12:19:25;;;;;;;5.18;3.42;;;21.40;99.90;;;;;;4972851;28;20110;-78
2021/08/18 12:22:04;;;;;;;5.15;3.30;;;21.30;99.90;;;;;;4961661;28;20030;-77
2021/08/18 12:24:31;;;;;;;5.18;4.00;;;21.20;99.90;;;;;;4972886;28;20109;-77
2021/08/18 12:27:05;;;;;;;5.78;4.70;;;21.10;99.90;;;;;;4972678;28;20031;-77
2021/08/18 12:29:32;;;;;;;9.23;4.05;;;21.20;99.90;;;;;;4972640;28;20487;-78
2021/08/18 12:32:04;;;;;;;7.45;4.78;;;21.30;99.90;;;;;;4972385;28;20033;-77
2021/08/18 12:34:31;;;;;;;4.55;3.67;;;21.40;99.90;;;;;;4973158;28;20051;-77
2021/08/18 12:37:01;;;;;;;7.72;3.95;;;21.60;99.90;;;;;;4973023;28;20034;-77
2021/08/18 12:39:35;;;;;;;4.55;3.15;;;21.30;99.90;;;;;;4972319;28;20081;-77
2021/08/18 12:42:01;;;;;;;7.32;3.45;;;21.10;99.90;;;;;;4973061;28;20043;-77
2021/08/18 12:44:33;;;;;;;6.70;3.50;;;20.90;99.90;;;;;;4973077;28;20387;-78
2021/08/18 12:47:13;;;;;;;4.07;3.78;;;20.70;99.90;;;;;;4975709;28;20117;-78
2021/08/18 12:49:47;;;;;;;5.28;4.38;;;20.50;99.90;;;;;;4976719;28;20382;-77
2021/08/18 12:52:13;;;;;;;5.03;4.43;;;20.30;99.90;;;;;;4977053;28;20403;-78